Dodson, Texas
Current Conditions -  °F | °C
As of 1:53 AM on Friday 31 Oct 2014 (Local Time) from KCDS Reporting Station
Clear Clear  
Wind Chill:   Ceiling: Unl
Heat Index:   Visibility: 10mi
Dew Point:   Wind: 5mph
Humidity: 54%   Direction: 340°NNW
Pressure: 30.33"   Gusts: NA
Location:  34.77°N, 100.02°W
Report Text: KCDS 310653Z AUTO 34004KT 10SM CLR 09/01 A3033 RMK AO2 SLP256 T00940006
Loading
Personal Weather Stations






























Interactive Weather Map
Tropical Storm Tracking
New forecast layout! Learn more

10-Day Weather Forecast

Advertisements
Track Severe Weather on mobile